Time;durP1;ratioP1;P1;durP2;ratioP2;P2;SDS_P1;SDS_P2;PMS_P1;PMS_P2;Temp;Humidity;BMP_temperature;BMP_pressure;BME280_temperature;BME280_humidity;BME280_pressure;Samples;Min_cycle;Max_cycle;Signal;HPM_P1;HPM_P2
2023/08/31 00:00:36;;;;;;;;;;;;;;;10.46;100.00;100610.88;4936556;28;20345;-85
2023/08/31 00:03:21;;;;;;;;;;;;;;;10.45;100.00;100608.31;4961492;28;19983;-86
2023/08/31 00:06:08;;;;;;;;;;;;;;;10.42;100.00;100595.19;4948902;28;19934;-85
2023/08/31 00:08:53;;;;;;;;;;;;;;;10.41;100.00;100596.13;4961326;28;20661;-85
2023/08/31 00:11:40;;;;;;;;;;;;;;;10.37;100.00;100595.44;4944799;28;20332;-86
2023/08/31 00:14:26;;;;;;;;;;;;;;;10.35;100.00;100589.34;4965839;28;19933;-85
2023/08/31 00:17:13;;;;;;;;;;;;;;;10.32;100.00;100582.44;4953757;28;20395;-86
2023/08/31 00:19:58;;;;;;;;;;;;;;;10.31;100.00;100578.03;4949909;28;19937;-85
2023/08/31 00:22:45;;;;;;;;;;;;;;;10.35;100.00;100584.03;4963068;28;19934;-85
2023/08/31 00:25:31;;;;;;;;;;;;;;;10.37;100.00;100579.56;4966540;28;20388;-84
2023/08/31 00:28:18;;;;;;;;;;;;;;;10.39;100.00;100576.81;4961750;28;20568;-84
2023/08/31 00:31:04;;;;;;;;;;;;;;;10.41;100.00;100567.88;4963264;28;20248;-85
2023/08/31 00:33:50;;;;;;;;;;;;;;;10.39;100.00;100575.03;4964418;28;19926;-85
2023/08/31 00:36:35;;;;;;;;;;;;;;;10.39;100.00;100572.38;4963377;28;20483;-84
2023/08/31 00:39:21;;;;;;;;;;;;;;;10.38;100.00;100556.56;4966134;28;21869;-85
2023/08/31 00:42:07;;;;;;;;;;;;;;;10.36;100.00;100550.50;4964174;28;20398;-86
2023/08/31 00:44:53;;;;;;;;;;;;;;;10.33;100.00;100543.56;4961233;28;20296;-86
2023/08/31 00:47:38;;;;;;;;;;;;;;;10.36;100.00;100540.78;4942274;28;19933;-85
2023/08/31 00:50:24;;;;;;;;;;;;;;;10.36;100.00;100542.56;4963442;28;19926;-85
2023/08/31 00:53:10;;;;;;;;;;;;;;;10.35;100.00;100548.81;4965057;28;20441;-85
2023/08/31 00:55:56;;;;;;;;;;;;;;;10.36;100.00;100545.22;4950797;28;20266;-86
2023/08/31 00:58:42;;;;;;;;;;;;;;;10.39;100.00;100545.91;4949663;28;20408;-85
2023/08/31 01:01:30;;;;;;;;;;;;;;;10.42;100.00;100540.50;4962259;28;19996;-85
2023/08/31 01:04:19;;;;;;;;;;;;;;;10.45;100.00;100544.78;4966697;27;19926;-85
2023/08/31 01:07:23;;;;;;;;;;;;;;;10.46;100.00;100546.50;4964247;28;20381;-85
2023/08/31 01:10:22;;;;;;;;;;;;;;;10.48;100.00;100544.66;4963748;28;19994;-86
2023/08/31 01:13:13;;;;;;;;;;;;;;;10.51;100.00;100549.78;4938406;28;20045;-85
2023/08/31 01:16:00;;;;;;;;;;;;;;;10.52;100.00;100550.66;4931446;28;19983;-86
2023/08/31 01:18:46;;;;;;;;;;;;;;;10.53;100.00;100549.69;4947905;28;19922;-88
2023/08/31 01:21:37;;;;;;;;;;;;;;;10.55;100.00;100537.25;4950579;28;20931;-86
2023/08/31 01:24:23;;;;;;;;;;;;;;;10.56;100.00;100537.16;4942703;28;19953;-87
2023/08/31 01:27:08;;;;;;;;;;;;;;;10.58;100.00;100529.16;4933194;28;19952;-88
2023/08/31 01:29:54;;;;;;;;;;;;;;;10.59;100.00;100536.16;4948424;28;19937;-84
2023/08/31 01:32:47;;;;;;;;;;;;;;;10.59;100.00;100538.81;4962658;28;20478;-87
2023/08/31 01:35:34;;;;;;;;;;;;;;;10.58;100.00;100539.75;4960191;28;20060;-84
2023/08/31 01:38:22;;;;;;;;;;;;;;;10.59;100.00;100538.81;4954928;28;19998;-84
2023/08/31 01:41:09;;;;;;;;;;;;;;;10.61;100.00;100539.59;4964641;28;19987;-84
2023/08/31 01:43:55;;;;;;;;;;;;;;;10.61;100.00;100531.63;4959398;28;19926;-84
2023/08/31 01:46:48;;;;;;;;;;;;;;;10.60;100.00;100532.56;4965637;28;20334;-87
2023/08/31 01:49:37;;;;;;;;;;;;;;;10.59;100.00;100531.72;4950213;28;19987;-85
2023/08/31 01:52:23;;;;;;;;;;;;;;;10.61;100.00;100536.09;4942291;28;19930;-85
2023/08/31 01:55:15;;;;;;;;;;;;;;;10.61;100.00;100529.00;4945150;28;20102;-84
2023/08/31 01:58:01;;;;;;;;;;;;;;;10.61;100.00;100523.69;4966851;28;20109;-87
2023/08/31 02:00:47;;;;;;;;;;;;;;;10.62;100.00;100525.41;4952018;28;19934;-84
2023/08/31 02:03:33;;;;;;;;;;;;;;;10.61;100.00;100530.81;4967528;28;20044;-84
2023/08/31 02:06:18;;;;;;;;;;;;;;;10.61;100.00;100522.84;4948086;28;19941;-85
2023/08/31 02:09:05;;;;;;;;;;;;;;;10.61;100.00;100533.44;4946982;28;19926;-84
2023/08/31 02:11:51;;;;;;;;;;;;;;;10.60;100.00;100527.28;4965472;28;19938;-86
2023/08/31 02:14:37;;;;;;;;;;;;;;;10.58;100.00;100529.16;4965110;28;19988;-86
2023/08/31 02:17:23;;;;;;;;;;;;;;;10.58;100.00;100523.88;4936465;28;19930;-85
2023/08/31 02:20:13;;;;;;;;;;;;;;;10.58;100.00;100530.00;4964751;28;21964;-85
2023/08/31 02:23:00;;;;;;;;;;;;;;;10.59;100.00;100528.22;5018986;28;19972;-84
2023/08/31 02:25:49;;;;;;;;;;;;;;;10.59;100.00;100530.88;5039990;28;20066;-85
2023/08/31 02:28:34;;;;;;;;;;;;;;;10.61;100.00;100534.28;5040634;28;19968;-86
2023/08/31 02:31:20;;;;;;;;;;;;;;;10.62;100.00;100536.00;5028716;28;19925;-84
2023/08/31 02:34:05;;;;;;;;;;;;;;;10.64;100.00;100526.22;5041878;28;19932;-84
2023/08/31 02:36:51;;;;;;;;;;;;;;;10.66;100.00;100531.41;5041714;28;19990;-84
2023/08/31 02:39:37;;;;;;;;;;;;;;;10.71;100.00;100542.63;5041755;28;20019;-85
2023/08/31 02:42:22;;;;;;;;;;;;;;;10.76;100.00;100535.31;5042507;28;19932;-84
2023/08/31 02:45:08;;;;;;;;;;;;;;;10.81;100.00;100535.94;5040799;28;19940;-84
2023/08/31 02:47:55;;;;;;;;;;;;;;;10.85;100.00;100529.53;5041527;28;19936;-86
2023/08/31 02:50:41;;;;;;;;;;;;;;;10.89;100.00;100527.56;5041934;28;19932;-84
2023/08/31 02:53:27;;;;;;;;;;;;;;;10.93;100.00;100531.78;5040083;28;19933;-89
2023/08/31 02:56:12;;;;;;;;;;;;;;;10.96;100.00;100536.91;5030920;28;19936;-85
2023/08/31 02:58:58;;;;;;;;;;;;;;;11.01;100.00;100536.69;5027782;28;20386;-86
2023/08/31 03:01:46;;;;;;;;;;;;;;;11.03;100.00;100542.75;5041148;28;19936;-89
2023/08/31 03:04:31;;;;;;;;;;;;;;;11.07;100.00;100546.94;5028240;28;19931;-87
2023/08/31 03:07:17;;;;;;;;;;;;;;;11.12;100.00;100549.38;5041246;28;19932;-86
2023/08/31 03:10:03;;;;;;;;;;;;;;;11.16;100.00;100558.84;5030303;28;19936;-87
2023/08/31 03:12:50;;;;;;;;;;;;;;;11.16;100.00;100553.56;5039758;28;19929;-88
2023/08/31 03:15:35;;;;;;;;;;;;;;;11.17;100.00;100551.78;5031539;28;19925;-87
2023/08/31 03:18:21;;;;;;;;;;;;;;;11.17;100.00;100552.63;5040527;28;19931;-86
2023/08/31 03:21:07;;;;;;;;;;;;;;;11.18;100.00;100548.19;5018335;28;19965;-85
2023/08/31 03:23:53;;;;;;;;;;;;;;;11.16;100.00;100550.91;4945878;28;20542;-85
2023/08/31 03:26:42;;;;;;;;;;;;;;;11.13;100.00;100551.94;4953284;28;20273;-85
2023/08/31 03:29:28;;;;;;;;;;;;;;;11.12;100.00;100544.91;4977526;28;22023;-86
2023/08/31 03:32:14;;;;;;;;;;;;;;;11.10;100.00;100545.94;4963701;28;20840;-86
2023/08/31 03:35:01;;;;;;;;;;;;;;;11.09;100.00;100546.88;4952552;28;19977;-86
2023/08/31 03:37:47;;;;;;;;;;;;;;;11.08;100.00;100546.03;4972269;28;19933;-86
2023/08/31 03:40:33;;;;;;;;;;;;;;;11.07;100.00;100551.41;4935903;28;19987;-87
2023/08/31 03:43:19;;;;;;;;;;;;;;;11.04;100.00;100549.78;4964435;28;19930;-87
2023/08/31 03:46:05;;;;;;;;;;;;;;;11.01;100.00;100555.25;4986562;28;19936;-86
2023/08/31 03:48:50;;;;;;;;;;;;;;;10.98;100.00;100563.34;4951309;28;20313;-86
2023/08/31 03:51:36;;;;;;;;;;;;;;;10.96;100.00;100568.69;4945067;28;19930;-86
2023/08/31 03:54:22;;;;;;;;;;;;;;;10.93;100.00;100560.94;4945608;28;19943;-87
2023/08/31 03:57:07;;;;;;;;;;;;;;;10.89;100.00;100567.31;4943840;28;19934;-86
2023/08/31 03:59:53;;;;;;;;;;;;;;;10.87;100.00;100577.13;4944011;28;19973;-86
2023/08/31 04:02:38;;;;;;;;;;;;;;;10.84;100.00;100569.34;4957393;28;19925;-86
2023/08/31 04:05:24;;;;;;;;;;;;;;;10.82;100.00;100581.78;4931607;28;19965;-86
2023/08/31 04:08:10;;;;;;;;;;;;;;;10.80;100.00;100583.66;4957468;28;19934;-85
2023/08/31 04:10:56;;;;;;;;;;;;;;;10.77;100.00;100584.69;4965019;28;20300;-86
2023/08/31 04:13:42;;;;;;;;;;;;;;;10.76;100.00;100592.69;4942556;28;20017;-86
2023/08/31 04:16:28;;;;;;;;;;;;;;;10.73;100.00;100591.91;4951597;28;20891;-86
2023/08/31 04:19:13;;;;;;;;;;;;;;;10.71;100.00;100592.94;4949464;28;19945;-85
2023/08/31 04:21:59;;;;;;;;;;;;;;;10.68;100.00;100593.94;4944971;28;19933;-86
2023/08/31 04:24:44;;;;;;;;;;;;;;;10.64;100.00;100597.69;4962096;28;19933;-86
2023/08/31 04:27:31;;;;;;;;;;;;;;;10.62;100.00;100599.53;4948315;28;20110;-85
2023/08/31 04:30:17;;;;;;;;;;;;;;;10.60;100.00;100606.69;4963458;28;19926;-86
2023/08/31 04:33:04;;;;;;;;;;;;;;;10.57;100.00;100613.00;4947801;28;19938;-86
2023/08/31 04:35:50;;;;;;;;;;;;;;;10.55;100.00;100614.00;4950503;28;19925;-84
2023/08/31 04:38:35;;;;;;;;;;;;;;;10.53;100.00;100606.16;4952091;28;19937;-85
2023/08/31 04:41:21;;;;;;;;;;;;;;;10.51;100.00;100613.28;4984205;28;19930;-85
2023/08/31 04:44:07;;;;;;;;;;;;;;;10.49;100.00;100616.94;4943968;28;19932;-86
2023/08/31 04:46:54;;;;;;;;;;;;;;;10.45;100.00;100614.47;4989081;28;19930;-85
2023/08/31 04:49:40;;;;;;;;;;;;;;;10.43;100.00;100626.94;4970432;28;19925;-85
2023/08/31 04:52:26;;;;;;;;;;;;;;;10.40;100.00;100632.31;4963830;28;19934;-85
2023/08/31 04:55:12;;;;;;;;;;;;;;;10.38;100.00;100633.31;4955049;28;22103;-85
2023/08/31 04:57:58;;;;;;;;;;;;;;;10.36;100.00;100636.06;4966483;28;20860;-85
2023/08/31 05:00:44;;;;;;;;;;;;;;;10.34;100.00;100648.47;4944212;28;21550;-85
2023/08/31 05:03:30;;;;;;;;;;;;;;;10.32;100.00;100645.94;4947042;28;19980;-85
2023/08/31 05:06:15;;;;;;;;;;;;;;;10.32;100.00;100639.78;4964130;28;20532;-86
2023/08/31 05:09:01;;;;;;;;;;;;;;;10.31;100.00;100648.66;4938141;28;19957;-86
2023/08/31 05:11:47;;;;;;;;;;;;;;;10.29;100.00;100650.47;4929625;28;19930;-85
2023/08/31 05:14:35;;;;;;;;;;;;;;;10.29;100.00;100650.47;4955543;28;20321;-85
2023/08/31 05:17:21;;;;;;;;;;;;;;;10.26;100.00;100656.81;4948643;28;19922;-87
2023/08/31 05:20:08;;;;;;;;;;;;;;;10.23;100.00;100654.28;4932610;28;19926;-86
2023/08/31 05:22:54;;;;;;;;;;;;;;;10.21;100.00;100663.22;4963905;28;20192;-85
2023/08/31 05:25:42;;;;;;;;;;;;;;;10.18;100.00;100665.09;4967698;28;19933;-87
2023/08/31 05:28:28;;;;;;;;;;;;;;;10.18;100.00;100659.81;5002641;28;19936;-86
2023/08/31 05:31:14;;;;;;;;;;;;;;;10.19;100.00;100661.50;4939106;28;19937;-86
2023/08/31 05:33:59;;;;;;;;;;;;;;;10.22;100.00;100671.09;4953500;28;19925;-85
2023/08/31 05:36:45;;;;;;;;;;;;;;;10.24;100.00;100671.03;4967367;28;19941;-82
2023/08/31 05:39:31;;;;;;;;;;;;;;;10.26;100.00;100671.81;4920967;28;19969;-83
2023/08/31 05:42:19;;;;;;;;;;;;;;;10.29;100.00;100667.22;4948203;28;19960;-83
2023/08/31 05:45:05;;;;;;;;;;;;;;;10.34;100.00;100672.31;4970785;28;20031;-82
2023/08/31 05:47:54;;;;;;;;;;;;;;;10.39;100.00;100678.25;4963733;28;20032;-82
2023/08/31 05:50:40;;;;;;;;;;;;;;;10.42;100.00;100680.75;4959322;28;19925;-82
2023/08/31 05:53:25;;;;;;;;;;;;;;;10.49;100.00;100680.47;4958663;28;19934;-83
2023/08/31 05:56:11;;;;;;;;;;;;;;;10.51;100.00;100687.41;4944034;28;19952;-81
2023/08/31 05:58:57;;;;;;;;;;;;;;;10.57;100.00;100692.41;4967428;28;19930;-83
2023/08/31 06:01:43;;;;;;;;;;;;;;;10.65;100.00;100686.75;4961392;28;19942;-81
2023/08/31 06:04:28;;;;;;;;;;;;;;;10.71;100.00;100699.72;4954775;28;19958;-82
2023/08/31 06:07:14;;;;;;;;;;;;;;;10.78;100.00;100697.59;4949567;28;20385;-81
2023/08/31 06:10:00;;;;;;;;;;;;;;;10.87;100.00;100696.31;4954824;28;19934;-80
2023/08/31 06:12:45;;;;;;;;;;;;;;;10.96;100.00;100693.19;4961514;28;20036;-81
2023/08/31 06:15:31;;;;;;;;;;;;;;;11.04;100.00;100695.47;4959808;28;19964;-81
2023/08/31 06:18:16;;;;;;;;;;;;;;;11.13;100.00;100699.47;4956894;28;20323;-81
2023/08/31 06:21:02;;;;;;;;;;;;;;;11.23;100.00;100705.16;4956056;28;19944;-81
2023/08/31 06:23:48;;;;;;;;;;;;;;;11.32;100.00;100709.13;4959413;28;19930;-82
2023/08/31 06:26:34;;;;;;;;;;;;;;;11.42;100.00;100707.72;4961378;28;19929;-82
2023/08/31 06:29:19;;;;;;;;;;;;;;;11.52;100.00;100716.94;4962910;28;19937;-82
2023/08/31 06:32:05;;;;;;;;;;;;;;;11.66;100.00;100712.69;4960972;28;20023;-82
2023/08/31 06:34:51;;;;;;;;;;;;;;;11.88;100.00;100708.91;4931029;28;20384;-84
2023/08/31 06:37:37;;;;;;;;;;;;;;;12.14;100.00;100712.00;4959891;28;19929;-82
2023/08/31 06:40:22;;;;;;;;;;;;;;;12.40;100.00;100717.66;4958168;28;21804;-82
2023/08/31 06:43:08;;;;;;;;;;;;;;;12.60;100.00;100720.06;5000683;28;19926;-82
2023/08/31 06:45:54;;;;;;;;;;;;;;;12.79;100.00;100724.34;4962443;28;19938;-82
2023/08/31 06:48:39;;;;;;;;;;;;;;;12.94;100.00;100721.75;4947082;28;21747;-80
2023/08/31 06:51:25;;;;;;;;;;;;;;;13.10;100.00;100733.22;4954285;28;20020;-82
2023/08/31 06:54:11;;;;;;;;;;;;;;;13.26;100.00;100733.19;4937921;28;20714;-82
2023/08/31 06:56:57;;;;;;;;;;;;;;;13.42;100.00;100730.47;4958143;28;19937;-82
2023/08/31 06:59:44;;;;;;;;;;;;;;;13.56;100.00;100740.31;4966485;28;20029;-82
2023/08/31 07:02:30;;;;;;;;;;;;;;;13.66;100.00;100742.41;4956076;28;20080;-81
2023/08/31 07:05:15;;;;;;;;;;;;;;;13.74;100.00;100747.28;4949222;28;19996;-82
2023/08/31 07:08:02;;;;;;;;;;;;;;;13.82;100.00;100745.88;4953869;28;20008;-82
2023/08/31 07:10:50;;;;;;;;;;;;;;;13.92;100.00;100737.31;4953411;28;19941;-81
2023/08/31 07:13:35;;;;;;;;;;;;;;;14.02;100.00;100742.94;4949013;28;20015;-81
2023/08/31 07:16:21;;;;;;;;;;;;;;;14.13;100.00;100745.81;4945282;28;19937;-83
2023/08/31 07:19:07;;;;;;;;;;;;;;;14.20;100.00;100747.13;4959851;27;20059;-82
2023/08/31 07:21:54;;;;;;;;;;;;;;;14.26;100.00;100749.41;4920787;28;19983;-82
2023/08/31 07:24:40;;;;;;;;;;;;;;;14.33;100.00;100747.22;4962477;28;20554;-82
2023/08/31 07:27:26;;;;;;;;;;;;;;;14.41;100.00;100752.06;4950094;28;19934;-83
2023/08/31 07:30:11;;;;;;;;;;;;;;;14.50;100.00;100745.28;4939069;28;20313;-81
2023/08/31 07:32:59;;;;;;;;;;;;;;;14.59;100.00;100751.84;4965529;28;19934;-84
2023/08/31 07:35:45;;;;;;;;;;;;;;;14.67;100.00;100745.06;4967754;28;20000;-81
2023/08/31 07:38:40;;;;;;;;;;;;;;;14.76;100.00;100745.47;4964695;28;20072;-81
2023/08/31 07:41:26;;;;;;;;;;;;;;;14.84;100.00;100753.81;4959562;28;19941;-81
2023/08/31 07:44:11;;;;;;;;;;;;;;;14.93;100.00;100763.03;4953930;28;20316;-81
2023/08/31 07:46:57;;;;;;;;;;;;;;;15.03;100.00;100768.63;4958487;28;19933;-80
2023/08/31 07:49:44;;;;;;;;;;;;;;;15.09;100.00;100759.34;4950647;28;19965;-80
2023/08/31 07:52:32;;;;;;;;;;;;;;;15.05;100.00;100778.19;4946582;28;19925;-83
2023/08/31 07:55:17;;;;;;;;;;;;;;;14.99;100.00;100773.25;4963676;28;20456;-79
2023/08/31 07:58:03;;;;;;;;;;;;;;;14.93;100.00;100773.69;4967086;28;19937;-80
2023/08/31 08:00:49;;;;;;;;;;;;;;;14.85;100.00;100778.63;4961824;28;19941;-80
2023/08/31 08:03:35;;;;;;;;;;;;;;;14.76;100.00;100783.63;4963218;28;19987;-85
2023/08/31 08:06:20;;;;;;;;;;;;;;;14.72;100.00;100792.75;4951768;28;20595;-82
2023/08/31 08:09:06;;;;;;;;;;;;;;;14.68;100.00;100785.88;4947786;28;20012;-80
2023/08/31 08:11:52;;;;;;;;;;;;;;;14.70;100.00;100797.28;4964232;28;20398;-80
2023/08/31 08:14:38;;;;;;;;;;;;;;;14.75;100.00;100803.22;4961401;28;19935;-82
2023/08/31 08:17:24;;;;;;;;;;;;;;;14.69;100.00;100808.03;4963608;28;19934;-81
2023/08/31 08:20:10;;;;;;;;;;;;;;;14.55;100.00;100811.59;4964634;28;20098;-81
2023/08/31 08:22:57;;;;;;;;;;;;;;;14.43;100.00;100808.75;4949086;28;19979;-81
2023/08/31 08:25:43;;;;;;;;;;;;;;;14.35;100.00;100813.69;4930989;28;20340;-84
2023/08/31 08:28:31;;;;;;;;;;;;;;;14.40;100.00;100815.09;4947550;28;20392;-81
2023/08/31 08:31:17;;;;;;;;;;;;;;;14.57;100.00;100809.69;4947951;28;19925;-80
2023/08/31 08:34:03;;;;;;;;;;;;;;;14.79;100.00;100811.88;4961284;28;19976;-81
2023/08/31 08:36:49;;;;;;;;;;;;;;;15.03;100.00;100806.78;4961421;28;19926;-81
2023/08/31 08:39:35;;;;;;;;;;;;;;;15.26;100.00;100807.06;4959818;28;19944;-81
2023/08/31 08:42:21;;;;;;;;;;;;;;;15.53;100.00;100803.53;4948363;28;21867;-82
2023/08/31 08:45:08;;;;;;;;;;;;;;;15.77;100.00;100805.50;4943846;28;20653;-80
2023/08/31 08:47:54;;;;;;;;;;;;;;;15.98;100.00;100797.00;4943825;28;19930;-79
2023/08/31 08:50:42;;;;;;;;;;;;;;;16.19;100.00;100804.50;4941705;28;19940;-81
2023/08/31 08:53:28;;;;;;;;;;;;;;;16.39;100.00;100806.59;4965813;28;20383;-81
2023/08/31 08:56:13;;;;;;;;;;;;;;;16.58;100.00;100805.31;4947625;28;19930;-80
2023/08/31 08:58:59;;;;;;;;;;;;;;;16.74;100.00;100804.19;4960311;28;19934;-79
2023/08/31 09:01:45;;;;;;;;;;;;;;;16.92;100.00;100808.22;4987929;28;19934;-78
2023/08/31 09:04:31;;;;;;;;;;;;;;;17.04;100.00;100816.31;4940269;28;19933;-79
2023/08/31 09:07:16;;;;;;;;;;;;;;;17.06;100.00;100825.09;4958352;28;19964;-79
2023/08/31 09:10:03;;;;;;;;;;;;;;;17.10;100.00;100816.72;4958026;28;19934;-79
2023/08/31 09:12:49;;;;;;;;;;;;;;;17.08;100.00;100823.16;4947129;28;19972;-79
2023/08/31 09:15:45;;;;;;;;;;;;;;;17.09;100.00;100830.22;4948157;28;19937;-79
2023/08/31 09:18:32;;;;;;;;;;;;;;;17.11;100.00;100833.66;4960921;28;19930;-79
2023/08/31 09:21:19;;;;;;;;;;;;;;;17.14;100.00;100832.53;4952919;28;19938;-80
2023/08/31 09:24:07;;;;;;;;;;;;;;;16.95;100.00;100833.88;4956233;28;19934;-82
2023/08/31 09:26:54;;;;;;;;;;;;;;;16.87;100.00;100838.91;4959066;28;19930;-80
2023/08/31 09:29:44;;;;;;;;;;;;;;;16.94;100.00;100838.34;4962325;28;20990;-80
2023/08/31 09:32:30;;;;;;;;;;;;;;;17.02;100.00;100836.97;4938625;28;19937;-80
2023/08/31 09:35:15;;;;;;;;;;;;;;;17.15;100.00;100826.25;4959170;28;19926;-80
2023/08/31 09:38:02;;;;;;;;;;;;;;;17.23;100.00;100831.88;4949388;28;20518;-82
2023/08/31 09:40:47;;;;;;;;;;;;;;;17.34;100.00;100844.47;4961519;28;19930;-81
2023/08/31 09:43:33;;;;;;;;;;;;;;;17.44;100.00;100842.78;4963053;28;19936;-82
2023/08/31 09:46:19;;;;;;;;;;;;;;;17.58;100.00;100841.75;4958182;28;20036;-79
2023/08/31 09:49:12;;;;;;;;;;;;;;;17.81;100.00;100841.84;4940856;28;20483;-85
2023/08/31 09:52:00;;;;;;;;;;;;;;;17.67;100.00;100845.56;4931911;28;22253;-84
2023/08/31 09:54:45;;;;;;;;;;;;;;;17.18;100.00;100850.94;4937852;28;20048;-84
2023/08/31 09:57:31;;;;;;;;;;;;;;;16.80;100.00;100847.41;4953861;28;19926;-86
2023/08/31 10:00:18;;;;;;;;;;;;;;;16.50;100.00;100850.44;4941970;28;19926;-83
2023/08/31 10:03:04;;;;;;;;;;;;;;;16.21;100.00;100850.63;4940253;28;19929;-87
2023/08/31 10:05:50;;;;;;;;;;;;;;;16.00;100.00;100843.13;4955362;28;20063;-83
2023/08/31 10:08:36;;;;;;;;;;;;;;;15.82;100.00;100848.75;4939613;28;19940;-83
2023/08/31 10:11:25;;;;;;;;;;;;;;;15.72;100.00;100848.53;4938513;28;19944;-82
2023/08/31 10:14:11;;;;;;;;;;;;;;;15.75;100.00;100839.47;4929216;28;19930;-83
2023/08/31 10:16:57;;;;;;;;;;;;;;;15.88;100.00;100842.13;4943163;28;20037;-83
2023/08/31 10:19:43;;;;;;;;;;;;;;;15.97;100.00;100859.38;4969294;28;20849;-83
2023/08/31 10:22:29;;;;;;;;;;;;;;;15.83;100.00;100861.16;4947528;28;19962;-86
2023/08/31 10:25:15;;;;;;;;;;;;;;;15.59;100.00;100861.81;4993189;28;19942;-83
2023/08/31 10:28:06;;;;;;;;;;;;;;;15.40;100.00;100862.19;4957423;28;19964;-83
2023/08/31 10:31:03;;;;;;;;;;;;;;;15.25;100.00;100865.88;4947534;28;19989;-82
2023/08/31 10:33:57;;;;;;;;;;;;;;;15.17;100.00;100867.22;4968244;28;19930;-83
2023/08/31 10:36:46;;;;;;;;;;;;;;;15.24;100.00;100861.50;4962802;28;19976;-82
2023/08/31 10:39:39;;;;;;;;;;;;;;;15.28;100.00;100865.66;4961043;28;19929;-84
2023/08/31 10:42:24;;;;;;;;;;;;;;;15.28;100.00;100862.97;4946778;28;19977;-84
2023/08/31 10:45:10;;;;;;;;;;;;;;;15.24;100.00;100867.66;4950528;28;19934;-82
2023/08/31 10:47:56;;;;;;;;;;;;;;;15.28;100.00;100858.53;4962648;28;20027;-83
2023/08/31 10:50:47;;;;;;;;;;;;;;;15.45;100.00;100856.53;4945313;28;19997;-83
2023/08/31 10:53:32;;;;;;;;;;;;;;;15.66;100.00;100858.75;4951087;28;20961;-84
2023/08/31 10:56:18;;;;;;;;;;;;;;;15.85;100.00;100861.03;4947554;28;20057;-83
2023/08/31 10:59:04;;;;;;;;;;;;;;;15.93;100.00;100858.75;4966183;28;19929;-85
2023/08/31 11:01:53;;;;;;;;;;;;;;;16.02;100.00;100862.59;4953911;28;19930;-84
2023/08/31 11:04:53;;;;;;;;;;;;;;;16.11;100.00;100861.09;4960349;28;19926;-83
2023/08/31 11:07:42;;;;;;;;;;;;;;;16.27;100.00;100860.91;4969891;28;19941;-83
2023/08/31 11:10:29;;;;;;;;;;;;;;;16.48;100.00;100863.03;4946998;28;19926;-81
2023/08/31 11:13:23;;;;;;;;;;;;;;;16.53;100.00;100863.56;4944424;28;20639;-83
2023/08/31 11:16:10;;;;;;;;;;;;;;;16.50;100.00;100866.47;4957823;28;19930;-83
2023/08/31 11:18:56;;;;;;;;;;;;;;;16.41;100.00;100863.44;4943315;28;19926;-83
2023/08/31 11:21:41;;;;;;;;;;;;;;;16.40;100.00;100871.59;4954154;28;19942;-81
2023/08/31 11:24:30;;;;;;;;;;;;;;;16.46;100.00;100859.63;4918118;28;19992;-83
2023/08/31 11:27:20;;;;;;;;;;;;;;;16.59;100.00;100868.47;4933590;28;19926;-82
2023/08/31 11:30:15;;;;;;;;;;;;;;;16.75;100.00;100880.75;4935528;28;21708;-82
2023/08/31 11:33:05;;;;;;;;;;;;;;;16.51;100.00;100895.72;4990817;28;19930;-85
2023/08/31 11:35:50;;;;;;;;;;;;;;;16.09;100.00;100889.72;4942182;28;19935;-84
2023/08/31 11:38:36;;;;;;;;;;;;;;;15.69;100.00;100890.56;4962167;28;20660;-83
2023/08/31 11:41:23;;;;;;;;;;;;;;;15.41;100.00;100900.41;4988690;28;22160;-81
2023/08/31 11:44:09;;;;;;;;;;;;;;;15.21;100.00;100906.03;4936311;28;19931;-82
2023/08/31 11:46:55;;;;;;;;;;;;;;;15.08;100.00;100905.13;4990174;28;19945;-81
2023/08/31 11:49:41;;;;;;;;;;;;;;;14.92;100.00;100905.22;4936152;28;19930;-82
2023/08/31 11:52:27;;;;;;;;;;;;;;;14.78;100.00;100906.94;4983403;28;20442;-81
2023/08/31 11:55:14;;;;;;;;;;;;;;;14.77;100.00;100907.06;4990778;28;19930;-81
2023/08/31 11:58:03;;;;;;;;;;;;;;;14.87;100.00;100918.00;4973206;28;19969;-81
2023/08/31 12:00:59;;;;;;;;;;;;;;;15.03;100.00;100908.06;4993725;28;20420;-81
2023/08/31 12:03:45;;;;;;;;;;;;;;;15.31;100.00;100916.13;4937390;28;19930;-81
2023/08/31 12:06:30;;;;;;;;;;;;;;;15.62;100.00;100914.13;4987330;28;19927;-82
2023/08/31 12:09:16;;;;;;;;;;;;;;;15.81;100.00;100916.47;4984216;28;19941;-82
2023/08/31 12:12:04;;;;;;;;;;;;;;;16.09;100.00;100911.97;4932250;28;20485;-87
2023/08/31 12:14:52;;;;;;;;;;;;;;;16.37;100.00;100934.09;4999399;28;20849;-83
2023/08/31 12:17:44;;;;;;;;;;;;;;;16.50;100.00;100946.63;4940648;28;19929;-84
2023/08/31 12:20:32;;;;;;;;;;;;;;;16.17;100.00;100953.31;4978592;28;20025;-82
2023/08/31 12:23:21;;;;;;;;;;;;;;;15.75;100.00;100948.88;4949687;28;20164;-83
2023/08/31 12:26:08;;;;;;;;;;;;;;;15.32;100.00;100945.34;4938336;28;19972;-83
2023/08/31 12:28:53;;;;;;;;;;;;;;;15.04;100.00;100952.44;4943010;28;19930;-83
2023/08/31 12:31:43;;;;;;;;;;;;;;;14.95;100.00;100953.03;4949247;28;19941;-83
2023/08/31 12:34:32;;;;;;;;;;;;;;;15.03;100.00;100944.56;4934315;28;20021;-84
2023/08/31 12:37:17;;;;;;;;;;;;;;;15.18;100.00;100946.25;4956208;28;20040;-82
2023/08/31 12:40:06;;;;;;;;;;;;;;;15.39;100.00;100950.31;4964631;28;20214;-79
2023/08/31 12:42:52;;;;;;;;;;;;;;;15.57;100.00;100948.25;4962251;28;19937;-80
2023/08/31 12:45:40;;;;;;;;;;;;;;;15.67;100.00;100949.38;4936138;28;19930;-87
2023/08/31 12:48:26;;;;;;;;;;;;;;;15.80;100.00;100953.91;4929583;28;19929;-83
2023/08/31 12:51:12;;;;;;;;;;;;;;;15.88;100.00;100952.47;4943112;28;20437;-86
2023/08/31 12:53:57;;;;;;;;;;;;;;;15.95;100.00;100941.41;4959328;28;20172;-83
2023/08/31 12:56:43;;;;;;;;;;;;;;;15.97;100.00;100945.66;4934152;28;19935;-84
2023/08/31 12:59:29;;;;;;;;;;;;;;;16.05;100.00;100945.16;4952851;28;19930;-86
2023/08/31 13:02:14;;;;;;;;;;;;;;;16.22;100.00;100945.81;4931799;28;20011;-86
2023/08/31 13:05:00;;;;;;;;;;;;;;;16.41;100.00;100938.25;4959263;28;20386;-83
2023/08/31 13:07:46;;;;;;;;;;;;;;;16.58;100.00;100954.97;4949134;28;20430;-87
2023/08/31 13:10:31;;;;;;;;;;;;;;;16.67;100.00;100956.97;4953883;28;19993;-84
2023/08/31 13:13:17;;;;;;;;;;;;;;;16.70;100.00;100963.94;4943468;28;21048;-86
2023/08/31 13:16:03;;;;;;;;;;;;;;;16.48;100.00;100972.56;4939972;28;19934;-86
2023/08/31 13:18:49;;;;;;;;;;;;;;;16.28;100.00;100974.78;4945959;28;19937;-83
2023/08/31 13:21:34;;;;;;;;;;;;;;;16.15;100.00;100967.63;4921880;28;19949;-84
2023/08/31 13:24:21;;;;;;;;;;;;;;;16.08;100.00;100976.16;4952048;28;19937;-84
2023/08/31 13:27:18;;;;;;;;;;;;;;;16.04;100.00;100975.50;4958479;27;19994;-84
2023/08/31 13:30:09;;;;;;;;;;;;;;;16.07;100.00;100971.75;4953617;28;20637;-86
2023/08/31 13:32:55;;;;;;;;;;;;;;;16.14;100.00;100957.88;4959556;28;20773;-83
2023/08/31 13:35:40;;;;;;;;;;;;;;;16.27;100.00;100978.41;4947928;28;20071;-85
2023/08/31 13:38:26;;;;;;;;;;;;;;;16.46;100.00;100966.50;4956477;28;20083;-85
2023/08/31 13:41:12;;;;;;;;;;;;;;;16.65;100.00;100969.59;4929789;28;20516;-85
2023/08/31 13:43:57;;;;;;;;;;;;;;;16.73;100.00;100978.91;4942281;28;20403;-85
2023/08/31 13:46:43;;;;;;;;;;;;;;;16.76;100.00;100982.22;4950970;28;20425;-84
2023/08/31 13:49:29;;;;;;;;;;;;;;;16.78;100.00;100974.09;4940552;28;19980;-85
2023/08/31 13:52:15;;;;;;;;;;;;;;;16.84;100.00;100984.38;4956809;28;19965;-87
2023/08/31 13:55:00;;;;;;;;;;;;;;;16.92;100.00;100976.66;4950822;28;19980;-85
2023/08/31 13:57:46;;;;;;;;;;;;;;;17.03;100.00;100980.41;4962086;28;19926;-84
2023/08/31 14:00:32;;;;;;;;;;;;;;;17.08;100.00;100983.63;4931626;28;19926;-87
2023/08/31 14:03:18;;;;;;;;;;;;;;;17.04;100.00;100991.00;4930592;28;19938;-83
2023/08/31 14:06:04;;;;;;;;;;;;;;;17.05;100.00;100983.84;4927312;28;19984;-84